createdAt,value
2023-05-21T00:00:41.758Z,98.63
2023-05-21T00:01:50.934Z,97.9
2023-05-21T00:03:00.121Z,99.6
2023-05-21T00:04:08.290Z,99.12
2023-05-21T00:05:17.461Z,97.9
2023-05-21T00:06:26.632Z,99.36
2023-05-21T00:07:35.806Z,101.8
2023-05-21T00:08:44.981Z,100.58
2023-05-21T00:09:54.156Z,99.6
2023-05-21T00:11:03.344Z,102.53
2023-05-21T00:12:12.485Z,97.9
2023-05-21T00:13:21.665Z,100.09
2023-05-21T00:14:30.851Z,98.87
2023-05-21T00:15:40.020Z,99.85
2023-05-21T00:16:49.193Z,99.85
2023-05-21T00:17:58.381Z,99.6
2023-05-21T00:19:06.564Z,101.8
2023-05-21T00:20:15.724Z,102.53
2023-05-21T00:21:24.908Z,101.31
2023-05-21T00:22:34.066Z,101.31
2023-05-21T00:23:43.234Z,100.58
2023-05-21T00:24:52.420Z,102.29
2023-05-21T00:26:01.588Z,99.6
2023-05-21T00:27:10.748Z,103.02
2023-05-21T00:29:29.107Z,99.85
2023-05-21T00:30:38.299Z,100.09
2023-05-21T00:31:47.456Z,101.31
2023-05-21T00:32:56.620Z,100.34
2023-05-21T00:34:04.809Z,100.83
2023-05-21T00:35:13.985Z,99.6
2023-05-21T00:36:23.209Z,99.85
2023-05-21T00:37:32.330Z,103.27
2023-05-21T00:38:41.505Z,99.12
2023-05-21T00:39:50.672Z,99.36
2023-05-21T00:40:59.851Z,100.58
2023-05-21T00:42:09.017Z,100.58
2023-05-21T00:43:18.185Z,101.07
2023-05-21T00:44:27.366Z,99.85
2023-05-21T00:45:36.545Z,99.6
2023-05-21T00:46:45.708Z,101.07
2023-05-21T00:47:54.880Z,99.6
2023-05-21T00:49:03.073Z,99.6
2023-05-21T00:50:12.247Z,99.85
2023-05-21T00:51:21.411Z,98.87
2023-05-21T00:52:30.591Z,98.14
2023-05-21T00:53:39.766Z,100.34
2023-05-21T00:54:48.949Z,99.36
2023-05-21T00:55:58.117Z,98.63
2023-05-21T00:57:07.290Z,96.19
2023-05-21T00:58:16.470Z,98.63
2023-05-21T00:59:25.637Z,96.19
2023-05-21T01:00:34.801Z,97.16
2023-05-21T01:01:43.967Z,100.34
2023-05-21T01:02:53.150Z,98.14
2023-05-21T01:04:01.339Z,100.34
2023-05-21T01:05:10.505Z,98.14
2023-05-21T01:06:19.678Z,97.9
2023-05-21T01:07:28.842Z,101.07
2023-05-21T01:08:38.015Z,100.83
2023-05-21T01:09:47.193Z,99.6
2023-05-21T01:10:56.369Z,101.07
2023-05-21T01:12:05.555Z,98.63
2023-05-21T01:13:14.718Z,99.85
2023-05-21T01:14:23.879Z,99.12
2023-05-21T01:15:33.058Z,99.85
2023-05-21T01:16:42.241Z,98.14
2023-05-21T01:17:51.411Z,99.85
2023-05-21T01:18:59.581Z,100.34
2023-05-21T01:20:08.786Z,98.38
2023-05-21T01:21:17.940Z,98.87
2023-05-21T01:22:27.123Z,99.12
2023-05-21T01:23:36.292Z,97.9
2023-05-21T01:24:45.464Z,99.36
2023-05-21T01:25:54.618Z,100.83
2023-05-21T01:28:12.981Z,97.9
2023-05-21T01:29:22.148Z,98.63
2023-05-21T01:30:31.317Z,100.34
2023-05-21T01:31:40.485Z,98.38
2023-05-21T01:32:49.681Z,97.41
2023-05-21T01:33:57.861Z,98.87
2023-05-21T01:35:07.025Z,102.05
2023-05-21T01:36:16.188Z,100.83
2023-05-21T01:37:25.390Z,98.63
2023-05-21T01:38:33.570Z,98.38
2023-05-21T01:39:42.745Z,97.9
2023-05-21T01:40:51.934Z,98.63
2023-05-21T01:42:01.100Z,98.63
2023-05-21T01:43:10.252Z,98.14
2023-05-21T01:44:19.448Z,97.41
2023-05-21T01:45:28.637Z,98.38
2023-05-21T01:46:37.776Z,97.41
2023-05-21T01:47:46.953Z,95.7
2023-05-21T01:48:56.141Z,94.48
2023-05-21T01:50:05.305Z,97.16
2023-05-21T01:51:14.478Z,93.5
2023-05-21T01:52:23.642Z,91.55
2023-05-21T01:53:31.841Z,91.79
2023-05-21T01:54:41.008Z,86.18
2023-05-21T01:55:50.169Z,86.91
2023-05-21T01:56:59.345Z,87.15
2023-05-21T01:58:08.523Z,86.91
2023-05-21T01:59:17.695Z,86.66
2023-05-21T02:00:26.870Z,93.01
2023-05-21T02:01:36.023Z,92.52
2023-05-21T02:02:45.209Z,87.15
2023-05-21T02:03:54.379Z,96.92
2023-05-21T02:05:03.553Z,86.18
2023-05-21T02:06:12.723Z,88.86
2023-05-21T02:07:21.900Z,87.64
2023-05-21T02:08:30.092Z,84.71
2023-05-21T02:09:39.261Z,86.42
2023-05-21T02:10:48.449Z,85.44
2023-05-21T02:11:57.611Z,84.47
2023-05-21T02:13:06.773Z,89.35
2023-05-21T02:14:15.957Z,83.25
2023-05-21T02:15:25.126Z,84.22
2023-05-21T02:16:34.325Z,92.28
2023-05-21T02:17:43.462Z,82.76
2023-05-21T02:18:52.647Z,89.11
2023-05-21T02:20:01.813Z,83
2023-05-21T02:21:10.988Z,83.25
2023-05-21T02:22:20.166Z,83.25
2023-05-21T02:23:28.338Z,80.32
2023-05-21T02:24:37.517Z,82.03
2023-05-21T02:25:46.709Z,79.83
2023-05-21T02:26:55.861Z,81.78
2023-05-21T02:28:05.043Z,92.77
2023-05-21T02:29:14.237Z,85.93
2023-05-21T02:31:32.558Z,83.98
2023-05-21T02:32:41.731Z,93.99
2023-05-21T02:33:50.901Z,86.42
2023-05-21T02:35:00.087Z,86.18
2023-05-21T02:36:09.242Z,87.64
2023-05-21T02:37:18.414Z,88.13
2023-05-21T02:38:26.606Z,88.62
2023-05-21T02:39:35.788Z,89.84
2023-05-21T02:40:44.949Z,92.04
2023-05-21T02:41:54.140Z,95.45
2023-05-21T02:43:03.312Z,94.48
2023-05-21T02:44:12.479Z,93.99
2023-05-21T02:45:21.655Z,97.65
2023-05-21T02:46:30.835Z,98.38
2023-05-21T02:47:39.994Z,98.63
2023-05-21T02:48:49.165Z,99.6
2023-05-21T02:49:58.349Z,99.85
2023-05-21T02:51:07.498Z,102.29
2023-05-21T02:52:16.694Z,102.05
2023-05-21T02:53:24.871Z,98.63
2023-05-21T02:54:34.034Z,98.14
2023-05-21T02:55:43.212Z,99.12
2023-05-21T02:56:52.381Z,99.85
2023-05-21T02:58:01.557Z,99.12
2023-05-21T02:59:10.722Z,97.41
2023-05-21T03:00:19.900Z,99.36
2023-05-21T03:01:29.068Z,97.9
2023-05-21T03:02:38.252Z,99.85
2023-05-21T03:03:47.420Z,101.07
2023-05-21T03:04:56.592Z,99.36
2023-05-21T03:06:05.768Z,100.58
2023-05-21T03:07:14.946Z,100.34
2023-05-21T03:08:23.122Z,100.34
2023-05-21T03:09:32.304Z,101.8
2023-05-21T03:10:41.470Z,98.63
2023-05-21T03:11:50.648Z,101.07
2023-05-21T03:12:59.816Z,101.07
2023-05-21T03:14:08.990Z,102.53
2023-05-21T03:15:18.171Z,102.29
2023-05-21T03:16:27.321Z,100.58
2023-05-21T03:17:36.494Z,99.6
2023-05-21T03:18:45.675Z,100.09
2023-05-21T03:19:54.856Z,99.85
2023-05-21T03:21:04.022Z,98.63
2023-05-21T03:22:13.214Z,97.65
2023-05-21T03:23:21.385Z,98.38
2023-05-21T03:24:30.567Z,98.63
2023-05-21T03:25:39.740Z,97.9
2023-05-21T03:26:48.917Z,100.34
2023-05-21T03:27:58.082Z,97.9
2023-05-21T03:29:07.251Z,97.41
2023-05-21T03:30:16.426Z,97.41
2023-05-21T03:31:25.589Z,98.14
2023-05-21T03:32:34.766Z,98.87
2023-05-21T03:33:43.946Z,96.67
2023-05-21T03:34:53.114Z,96.43
2023-05-21T03:36:02.285Z,95.94
2023-05-21T03:38:20.650Z,96.92
2023-05-21T03:39:28.817Z,93.99
2023-05-21T03:40:37.989Z,96.19
2023-05-21T03:41:47.174Z,95.7
2023-05-21T03:42:56.342Z,95.94
2023-05-21T03:44:05.511Z,97.65
2023-05-21T03:45:14.681Z,95.94
2023-05-21T03:46:23.864Z,94.72
2023-05-21T03:47:33.039Z,95.94
2023-05-21T03:48:42.213Z,96.92
2023-05-21T03:49:51.381Z,97.16
2023-05-21T03:51:00.550Z,94.72
2023-05-21T03:52:09.719Z,94.97
2023-05-21T03:53:18.885Z,94.23
2023-05-21T03:54:27.077Z,92.77
2023-05-21T03:55:36.262Z,93.99
2023-05-21T03:56:45.425Z,92.28
2023-05-21T03:57:54.603Z,90.82
2023-05-21T03:59:03.769Z,92.28
2023-05-21T04:00:12.949Z,90.08
2023-05-21T04:02:31.285Z,87.64
2023-05-21T04:03:40.456Z,89.84
2023-05-21T04:04:49.641Z,89.35
2023-05-21T04:05:58.806Z,89.59
2023-05-21T04:07:07.978Z,88.86
2023-05-21T04:08:17.142Z,89.35
2023-05-21T04:09:25.332Z,87.4
2023-05-21T04:10:34.508Z,85.2
2023-05-21T04:11:43.688Z,85.44
2023-05-21T04:12:52.858Z,87.89
2023-05-21T04:14:02.045Z,84.71
2023-05-21T04:15:11.205Z,85.69
2023-05-21T04:16:20.375Z,85.2
2023-05-21T04:17:29.563Z,86.66
2023-05-21T04:18:38.725Z,84.47
2023-05-21T04:19:47.916Z,83.98
2023-05-21T04:20:57.058Z,84.71
2023-05-21T04:22:06.246Z,84.22
2023-05-21T04:23:15.404Z,83
2023-05-21T04:24:23.597Z,81.78
2023-05-21T04:25:32.765Z,81.54
2023-05-21T04:26:41.950Z,81.78
2023-05-21T04:27:51.117Z,81.54
2023-05-21T04:29:00.296Z,83
2023-05-21T04:30:09.454Z,81.05
2023-05-21T04:31:18.623Z,84.96
2023-05-21T04:32:27.805Z,83
2023-05-21T04:34:46.158Z,81.54
2023-05-21T04:35:55.323Z,83
2023-05-21T04:37:04.496Z,82.03
2023-05-21T04:38:13.685Z,84.22
2023-05-21T04:39:21.856Z,83.25
2023-05-21T04:40:31.018Z,84.47
2023-05-21T04:41:40.200Z,83.74
2023-05-21T04:42:49.373Z,83
2023-05-21T04:43:58.557Z,85.2
2023-05-21T04:45:07.717Z,87.89
2023-05-21T04:46:16.896Z,89.11
2023-05-21T04:47:26.061Z,89.59
2023-05-21T04:48:35.243Z,91.55
2023-05-21T04:50:53.592Z,96.67
2023-05-21T04:52:02.762Z,96.67
2023-05-21T04:54:21.114Z,95.21
2023-05-21T04:55:29.284Z,96.43
2023-05-21T04:56:37.484Z,101.31
2023-05-21T04:57:46.656Z,99.85
2023-05-21T04:58:55.825Z,100.83
2023-05-21T05:00:05.007Z,100.83
2023-05-21T05:01:14.183Z,104
2023-05-21T05:02:23.346Z,100.34
2023-05-21T05:03:32.526Z,101.8
2023-05-21T05:04:41.688Z,101.07
2023-05-21T05:05:50.879Z,101.31
2023-05-21T05:06:59.074Z,102.05
2023-05-21T05:08:07.271Z,99.6
2023-05-21T05:09:16.429Z,99.12
2023-05-21T05:10:24.632Z,100.34
2023-05-21T05:11:32.828Z,100.83
2023-05-21T05:12:41.994Z,100.58
2023-05-21T05:15:00.334Z,99.85
2023-05-21T05:16:09.505Z,100.83
2023-05-21T05:17:18.683Z,100.58
2023-05-21T05:18:27.844Z,100.09
2023-05-21T05:19:37.032Z,99.12
2023-05-21T05:21:55.371Z,98.63
2023-05-21T05:23:04.554Z,100.58
2023-05-21T05:24:12.736Z,98.38
2023-05-21T05:25:20.918Z,97.16
2023-05-21T05:26:30.093Z,97.9
2023-05-21T05:27:39.269Z,96.19
2023-05-21T05:28:48.433Z,97.41
2023-05-21T05:29:56.623Z,95.7
2023-05-21T05:31:05.811Z,95.45
2023-05-21T05:32:14.985Z,95.94
2023-05-21T05:33:24.153Z,94.72
2023-05-21T05:34:33.316Z,94.48
2023-05-21T05:35:41.514Z,92.28
2023-05-21T05:36:49.705Z,93.01
2023-05-21T05:37:58.884Z,92.77
2023-05-21T05:39:08.039Z,91.3
2023-05-21T05:40:17.234Z,92.28
2023-05-21T05:41:26.398Z,91.55
2023-05-21T05:42:35.576Z,90.57
2023-05-21T05:43:44.749Z,90.82
2023-05-21T05:44:53.928Z,87.64
2023-05-21T05:47:12.259Z,89.35
2023-05-21T05:48:21.443Z,85.93
2023-05-21T05:49:30.609Z,85.93
2023-05-21T05:50:39.778Z,86.91
2023-05-21T05:51:48.947Z,86.91
2023-05-21T05:52:57.134Z,86.18
2023-05-21T05:55:15.485Z,86.18
2023-05-21T05:56:23.676Z,88.13
2023-05-21T05:57:31.859Z,84.47
2023-05-21T05:58:41.035Z,85.2
2023-05-21T05:59:50.208Z,88.62
2023-05-21T06:00:59.376Z,86.91
2023-05-21T06:02:08.659Z,87.15
2023-05-21T06:03:17.749Z,84.47
2023-05-21T06:04:26.907Z,83.98
2023-05-21T06:05:36.093Z,84.22
2023-05-21T06:06:45.248Z,84.47
2023-05-21T06:07:54.428Z,84.96
2023-05-21T06:09:02.610Z,86.18
2023-05-21T06:10:10.794Z,84.22
2023-05-21T06:11:19.964Z,86.18
2023-05-21T06:12:29.149Z,85.44
2023-05-21T06:13:38.322Z,86.66
2023-05-21T06:14:47.485Z,84.96
2023-05-21T06:15:56.667Z,84.71
2023-05-21T06:17:05.841Z,86.42
2023-05-21T06:18:15.007Z,85.93
2023-05-21T06:19:24.325Z,87.4
2023-05-21T06:20:33.359Z,86.66
2023-05-21T06:21:42.536Z,87.89
2023-05-21T06:22:51.700Z,90.82
2023-05-21T06:24:00.868Z,90.82
2023-05-21T06:25:09.094Z,91.55
2023-05-21T06:26:18.236Z,90.08
2023-05-21T06:27:27.402Z,92.52
2023-05-21T06:28:36.577Z,89.84
2023-05-21T06:29:45.738Z,91.3
2023-05-21T06:30:54.916Z,93.75
2023-05-21T06:32:03.115Z,92.28
2023-05-21T06:33:11.296Z,93.01
2023-05-21T06:34:20.471Z,92.28
2023-05-21T06:35:29.630Z,92.04
2023-05-21T06:36:38.819Z,96.67
2023-05-21T06:37:47.988Z,94.23
2023-05-21T06:38:57.171Z,94.23
2023-05-21T06:40:06.328Z,95.21
2023-05-21T06:41:15.511Z,97.9
2023-05-21T06:42:24.673Z,98.14
2023-05-21T06:43:33.854Z,94.72
2023-05-21T06:44:43.022Z,98.87
2023-05-21T06:45:52.204Z,97.9
2023-05-21T06:47:01.372Z,100.09
2023-05-21T06:48:09.560Z,97.65
2023-05-21T06:49:18.726Z,97.41
2023-05-21T06:50:27.908Z,97.9
2023-05-21T06:51:37.089Z,98.63
2023-05-21T06:52:46.249Z,98.63
2023-05-21T06:53:55.427Z,99.12
2023-05-21T06:55:03.605Z,99.85
2023-05-21T06:56:11.813Z,100.34
2023-05-21T06:57:20.002Z,100.58
2023-05-21T06:59:38.320Z,102.53
2023-05-21T07:00:47.513Z,100.34
2023-05-21T07:01:56.687Z,103.27
2023-05-21T07:03:05.845Z,103.75
2023-05-21T07:04:15.017Z,101.31
2023-05-21T07:05:24.195Z,102.29
2023-05-21T07:06:33.372Z,101.31
2023-05-21T07:07:42.543Z,99.12
2023-05-21T07:08:51.715Z,100.34
2023-05-21T07:10:00.887Z,99.6
2023-05-21T07:11:10.085Z,99.85
2023-05-21T07:12:18.250Z,102.53
2023-05-21T07:13:27.425Z,102.05
2023-05-21T07:14:36.596Z,101.8
2023-05-21T07:15:45.761Z,102.05
2023-05-21T07:16:54.949Z,104.73
2023-05-21T07:18:04.122Z,99.36
2023-05-21T07:19:13.299Z,99.12
2023-05-21T07:20:21.488Z,100.83
2023-05-21T07:21:29.661Z,101.07
2023-05-21T07:22:38.842Z,100.34
2023-05-21T07:23:47.999Z,100.34
2023-05-21T07:24:57.184Z,101.07
2023-05-21T07:26:06.387Z,99.6
2023-05-21T07:27:15.548Z,99.85
2023-05-21T07:28:24.697Z,99.12
2023-05-21T07:29:33.881Z,98.14
2023-05-21T07:30:43.061Z,97.41
2023-05-21T07:31:52.217Z,98.38
2023-05-21T07:33:01.399Z,97.41
2023-05-21T07:34:10.574Z,97.41
2023-05-21T07:35:19.733Z,96.19
2023-05-21T07:36:27.922Z,96.92
2023-05-21T07:37:37.092Z,98.63
2023-05-21T07:38:46.274Z,97.9
2023-05-21T07:41:04.610Z,98.87
2023-05-21T07:42:13.796Z,98.87
2023-05-21T07:43:22.973Z,96.92
2023-05-21T07:44:31.160Z,98.14
2023-05-21T07:45:39.348Z,98.38
2023-05-21T07:46:47.535Z,98.87
2023-05-21T07:47:56.712Z,101.07
2023-05-21T07:49:05.878Z,99.36
2023-05-21T07:50:15.065Z,102.29
2023-05-21T07:51:24.226Z,99.85
2023-05-21T07:52:33.398Z,105.71
2023-05-21T07:53:42.582Z,99.12
2023-05-21T07:54:51.734Z,98.38
2023-05-21T07:56:00.923Z,100.58
2023-05-21T07:57:10.106Z,98.14
2023-05-21T07:58:19.269Z,98.38
2023-05-21T07:59:28.473Z,102.29
2023-05-21T08:00:37.608Z,98.38
2023-05-21T08:01:45.796Z,101.31
2023-05-21T08:02:54.997Z,99.12
2023-05-21T08:04:04.141Z,100.34
2023-05-21T08:05:13.321Z,100.34
2023-05-21T08:07:31.673Z,102.78
2023-05-21T08:08:40.830Z,104.98
2023-05-21T08:09:49.029Z,103.51
2023-05-21T08:10:57.217Z,101.8
2023-05-21T08:12:06.393Z,101.31
2023-05-21T08:13:15.561Z,104.73
2023-05-21T08:14:24.722Z,102.05
2023-05-21T08:15:33.906Z,103.02
2023-05-21T08:16:43.095Z,102.78
2023-05-21T08:17:52.247Z,102.29
2023-05-21T08:19:01.434Z,102.53
2023-05-21T08:20:10.588Z,104.24
2023-05-21T08:21:19.775Z,104.24
2023-05-21T08:22:28.938Z,102.05
2023-05-21T08:23:38.115Z,103.27
2023-05-21T08:24:47.298Z,104.49
2023-05-21T08:25:55.465Z,102.05
2023-05-21T08:27:04.648Z,102.53
2023-05-21T08:28:13.842Z,106.93
2023-05-21T08:29:22.985Z,103.27
2023-05-21T08:30:32.163Z,102.53
2023-05-21T08:31:41.336Z,105.22
2023-05-21T08:32:49.527Z,103.75
2023-05-21T08:33:57.751Z,102.29
2023-05-21T08:35:05.925Z,102.29
2023-05-21T08:36:15.086Z,100.58
2023-05-21T08:38:33.428Z,103.75
2023-05-21T08:39:42.607Z,102.05
2023-05-21T08:40:51.757Z,103.02
2023-05-21T08:42:00.944Z,104.49
2023-05-21T08:43:10.119Z,101.07
2023-05-21T08:44:19.280Z,104
2023-05-21T08:45:28.457Z,103.75
2023-05-21T08:46:37.623Z,102.53
2023-05-21T08:47:46.823Z,102.78
2023-05-21T08:48:55.975Z,102.29
2023-05-21T08:50:04.188Z,104
2023-05-21T08:51:13.427Z,102.78
2023-05-21T08:52:22.552Z,104.24
2023-05-21T08:53:31.684Z,104.49
2023-05-21T08:54:40.849Z,103.02
2023-05-21T08:55:50.034Z,103.27
2023-05-21T08:56:59.192Z,104.24
2023-05-21T08:58:07.375Z,103.27
2023-05-21T08:59:15.569Z,102.05
2023-05-21T09:00:24.748Z,101.56
2023-05-21T09:01:33.920Z,102.53
2023-05-21T09:02:43.104Z,102.78
2023-05-21T09:03:52.262Z,100.58
2023-05-21T09:05:01.480Z,103.75
2023-05-21T09:06:10.612Z,100.09
2023-05-21T09:07:19.800Z,104.73
2023-05-21T09:08:28.958Z,103.27
2023-05-21T09:09:38.131Z,104.49
2023-05-21T09:10:47.319Z,103.27
2023-05-21T09:11:56.479Z,103.51
2023-05-21T09:13:05.681Z,103.51
2023-05-21T09:14:13.822Z,101.8
2023-05-21T09:15:23.021Z,103.51
2023-05-21T09:16:32.188Z,103.51
2023-05-21T09:17:41.349Z,104.49
2023-05-21T09:19:59.692Z,104
2023-05-21T09:21:07.922Z,103.27
2023-05-21T09:22:16.087Z,104.24
2023-05-21T09:23:24.353Z,103.51
2023-05-21T09:24:33.453Z,102.53
2023-05-21T09:25:42.646Z,103.27
2023-05-21T09:26:51.871Z,101.8
2023-05-21T09:28:00.979Z,102.05
2023-05-21T09:29:10.145Z,102.29
2023-05-21T09:30:19.348Z,103.27
2023-05-21T09:31:28.472Z,104.24
2023-05-21T09:32:37.648Z,100.09
2023-05-21T09:33:46.834Z,105.71
2023-05-21T09:34:56.114Z,103.27
2023-05-21T09:36:05.330Z,103.51
2023-05-21T09:37:14.481Z,102.53
2023-05-21T09:38:22.694Z,100.58
2023-05-21T09:39:31.704Z,102.53
2023-05-21T09:40:41.021Z,104
2023-05-21T09:41:50.046Z,101.07
2023-05-21T09:42:59.256Z,100.58
2023-05-21T09:44:08.402Z,102.78
2023-05-21T09:45:17.567Z,101.8
2023-05-21T09:46:26.748Z,104.73
2023-05-21T09:47:35.979Z,103.27
2023-05-21T09:48:44.118Z,103.27
2023-05-21T09:49:52.395Z,104.73
2023-05-21T09:51:00.478Z,105.71
2023-05-21T09:52:09.686Z,104.73
2023-05-21T09:53:18.814Z,102.53
2023-05-21T09:54:28.002Z,102.53
2023-05-21T09:55:37.278Z,102.29
2023-05-21T09:56:46.488Z,102.78
2023-05-21T09:57:55.539Z,101.8
2023-05-21T09:59:04.730Z,104
2023-05-21T10:00:13.864Z,101.8
2023-05-21T10:01:23.035Z,105.22
2023-05-21T10:02:32.204Z,103.27
2023-05-21T10:03:41.398Z,104.98
2023-05-21T10:04:50.549Z,104.98
2023-05-21T10:05:58.734Z,104.24
2023-05-21T10:07:07.912Z,104.98
2023-05-21T10:08:17.080Z,104
2023-05-21T10:09:26.242Z,102.53
2023-05-21T10:10:35.432Z,105.22
2023-05-21T10:11:44.724Z,106.44
2023-05-21T10:12:53.767Z,102.78
2023-05-21T10:14:03.002Z,104
2023-05-21T10:15:12.170Z,102.78
2023-05-21T10:16:21.304Z,104.49
2023-05-21T10:17:30.471Z,103.27
2023-05-21T10:18:39.624Z,102.78
2023-05-21T10:19:48.803Z,104.24
2023-05-21T10:20:56.992Z,104.49
2023-05-21T10:22:06.162Z,104.24
2023-05-21T10:23:15.338Z,104.24
2023-05-21T10:24:24.601Z,103.75
2023-05-21T10:25:33.681Z,103.75
2023-05-21T10:26:42.850Z,105.22
2023-05-21T10:27:52.032Z,103.27
2023-05-21T10:29:01.192Z,103.75
2023-05-21T10:30:10.438Z,104.24
2023-05-21T10:31:19.718Z,102.78
2023-05-21T10:32:28.860Z,104.73
2023-05-21T10:33:38.067Z,105.22
2023-05-21T10:34:47.183Z,105.71
2023-05-21T10:35:55.305Z,102.05
2023-05-21T10:37:04.523Z,103.27
2023-05-21T10:38:13.604Z,102.53
2023-05-21T10:39:22.864Z,103.27
2023-05-21T10:40:31.105Z,104
2023-05-21T10:41:39.196Z,104.49
2023-05-21T10:42:47.362Z,102.53
2023-05-21T10:43:56.514Z,105.95
2023-05-21T10:45:05.681Z,103.51
2023-05-21T10:46:14.870Z,103.51
2023-05-21T10:47:24.058Z,103.27
2023-05-21T10:48:33.246Z,105.71
2023-05-21T10:49:42.382Z,102.78
2023-05-21T10:50:51.567Z,101.8
2023-05-21T10:52:00.734Z,104.49
2023-05-21T10:53:09.917Z,104.73
2023-05-21T10:54:19.080Z,105.22
2023-05-21T10:55:28.249Z,103.51
2023-05-21T10:56:37.430Z,103.75
2023-05-21T10:57:45.606Z,102.05
2023-05-21T10:58:54.780Z,102.53
2023-05-21T11:00:03.960Z,102.29
2023-05-21T11:01:13.131Z,103.75
2023-05-21T11:03:31.482Z,103.51
2023-05-21T11:04:40.662Z,102.78
2023-05-21T11:05:49.819Z,106.44
2023-05-21T11:06:58.990Z,103.27
2023-05-21T11:08:08.190Z,103.02
2023-05-21T11:09:17.367Z,102.53
2023-05-21T11:10:26.509Z,102.78
2023-05-21T11:11:35.675Z,105.71
2023-05-21T11:13:53.045Z,102.29
2023-05-21T11:15:02.214Z,105.95
2023-05-21T11:16:11.375Z,100.09
2023-05-21T11:17:20.560Z,102.53
2023-05-21T11:18:29.713Z,102.53
2023-05-21T11:19:38.903Z,101.07
2023-05-21T11:21:57.289Z,101.07
2023-05-21T11:23:05.447Z,103.51
2023-05-21T11:24:13.625Z,105.71
2023-05-21T11:25:22.814Z,102.78
2023-05-21T11:26:32.036Z,102.53
2023-05-21T11:27:41.175Z,104.49
2023-05-21T11:28:50.355Z,101.56
2023-05-21T11:31:08.665Z,101.07
2023-05-21T11:32:17.834Z,104.24
2023-05-21T11:33:27.000Z,104.73
2023-05-21T11:34:36.183Z,102.78
2023-05-21T11:35:45.354Z,103.02
2023-05-21T11:36:54.556Z,104.24
2023-05-21T11:38:03.704Z,103.51
2023-05-21T11:39:11.889Z,102.29
2023-05-21T11:40:21.052Z,101.8
2023-05-21T11:41:30.226Z,105.95
2023-05-21T11:42:39.390Z,101.31
2023-05-21T11:43:48.563Z,100.83
2023-05-21T11:44:57.739Z,101.31
2023-05-21T11:46:06.917Z,102.78
2023-05-21T11:47:15.114Z,102.05
2023-05-21T11:49:32.470Z,101.8
2023-05-21T11:50:41.649Z,100.58
2023-05-21T11:51:50.818Z,101.8
2023-05-21T11:52:59.985Z,101.8
2023-05-21T11:54:09.168Z,101.8
2023-05-21T11:55:18.338Z,102.53
2023-05-21T11:56:27.511Z,102.78
2023-05-21T11:57:36.672Z,101.07
2023-05-21T11:58:45.863Z,100.83
2023-05-21T11:59:55.030Z,104
2023-05-21T12:01:04.193Z,102.29
2023-05-21T12:02:13.356Z,100.58
2023-05-21T12:03:21.570Z,104
2023-05-21T12:04:30.729Z,106.93
2023-05-21T12:05:39.905Z,102.78
2023-05-21T12:06:49.072Z,103.27
2023-05-21T12:07:58.239Z,100.58
2023-05-21T12:10:16.591Z,101.8
2023-05-21T12:11:25.754Z,101.8
2023-05-21T12:12:33.955Z,102.78
2023-05-21T12:13:42.136Z,103.75
2023-05-21T12:14:51.316Z,103.51
2023-05-21T12:16:00.488Z,100.34
2023-05-21T12:17:09.659Z,102.53
2023-05-21T12:18:18.831Z,101.8
2023-05-21T12:19:28.001Z,103.51
2023-05-21T12:20:37.174Z,101.07
2023-05-21T12:21:46.350Z,101.56
2023-05-21T12:22:55.512Z,102.78
2023-05-21T12:24:04.693Z,103.51
2023-05-21T12:25:13.883Z,102.78
2023-05-21T12:26:23.064Z,102.78
2023-05-21T12:27:32.259Z,105.71
2023-05-21T12:28:40.402Z,101.31
2023-05-21T12:29:49.572Z,103.27
2023-05-21T12:30:58.743Z,103.51
2023-05-21T12:32:07.922Z,102.53
2023-05-21T12:34:26.265Z,103.51
2023-05-21T12:35:35.530Z,104.73
2023-05-21T12:36:44.617Z,104.98
2023-05-21T12:37:53.787Z,104.49
2023-05-21T12:39:02.954Z,104.98
2023-05-21T12:40:12.150Z,106.44
2023-05-21T12:41:21.301Z,104
2023-05-21T12:42:30.466Z,104.73
2023-05-21T12:43:38.652Z,105.71
2023-05-21T12:44:47.841Z,105.22
2023-05-21T12:45:57.013Z,103.75
2023-05-21T12:47:06.172Z,102.53
2023-05-21T12:48:15.350Z,104.49
2023-05-21T12:49:24.523Z,103.02
2023-05-21T12:50:33.688Z,103.02
2023-05-21T12:51:42.940Z,102.29
2023-05-21T12:52:52.043Z,103.27
2023-05-21T12:54:01.207Z,100.09
2023-05-21T12:55:10.374Z,102.78
2023-05-21T12:56:19.552Z,102.05
2023-05-21T12:57:28.744Z,103.51
2023-05-21T12:58:36.908Z,101.56
2023-05-21T12:59:46.089Z,103.75
2023-05-21T13:00:55.280Z,102.53
2023-05-21T13:02:04.429Z,103.51
2023-05-21T13:03:13.610Z,103.02
2023-05-21T13:04:22.780Z,103.02
2023-05-21T13:05:31.939Z,103.27
2023-05-21T13:06:41.126Z,101.56
2023-05-21T13:07:50.285Z,102.05
2023-05-21T13:08:59.462Z,102.78
2023-05-21T13:10:08.857Z,103.75
2023-05-21T13:12:26.982Z,102.53
2023-05-21T13:13:35.170Z,102.53
2023-05-21T13:14:44.345Z,103.27
2023-05-21T13:15:53.540Z,103.02
2023-05-21T13:17:02.697Z,104.98
2023-05-21T13:18:11.863Z,102.53
2023-05-21T13:19:21.033Z,101.07
2023-05-21T13:20:30.201Z,102.29
2023-05-21T13:21:39.379Z,103.51
2023-05-21T13:22:48.557Z,103.51
2023-05-21T13:23:57.722Z,103.27
2023-05-21T13:25:06.895Z,101.31
2023-05-21T13:26:16.079Z,102.29
2023-05-21T13:27:25.250Z,102.53
2023-05-21T13:28:33.442Z,102.53
2023-05-21T13:29:42.596Z,104
2023-05-21T13:30:51.766Z,101.07
2023-05-21T13:32:00.943Z,101.31
2023-05-21T13:33:10.114Z,103.27
2023-05-21T13:34:19.294Z,101.31
2023-05-21T13:35:28.462Z,102.29
2023-05-21T13:36:37.642Z,101.07
2023-05-21T13:37:46.817Z,101.56
2023-05-21T13:38:55.988Z,101.07
2023-05-21T13:40:05.181Z,104.24
2023-05-21T13:41:14.333Z,101.07
2023-05-21T13:42:23.496Z,101.31
2023-05-21T13:43:31.678Z,102.53
2023-05-21T13:44:40.860Z,99.12
2023-05-21T13:45:50.046Z,102.05
2023-05-21T13:46:59.218Z,101.8
2023-05-21T13:48:08.391Z,99.12
2023-05-21T13:49:17.563Z,99.6
2023-05-21T13:50:26.783Z,100.34
2023-05-21T13:51:35.907Z,100.58
2023-05-21T13:52:45.076Z,101.8
2023-05-21T13:53:54.242Z,103.51
2023-05-21T13:55:03.413Z,104.49
2023-05-21T13:56:12.591Z,101.8
2023-05-21T13:57:21.762Z,102.53
2023-05-21T13:58:29.970Z,101.8
2023-05-21T13:59:39.131Z,101.8
2023-05-21T14:00:48.296Z,101.8
2023-05-21T14:01:57.488Z,103.51
2023-05-21T14:03:06.672Z,104
2023-05-21T14:04:15.840Z,100.58
2023-05-21T14:05:25.012Z,101.31
2023-05-21T14:06:34.165Z,99.6
2023-05-21T14:07:43.363Z,101.31
2023-05-21T14:10:01.676Z,103.27
2023-05-21T14:11:10.859Z,101.07
2023-05-21T14:12:20.050Z,103.51
2023-05-21T14:13:28.255Z,101.8
2023-05-21T14:14:36.422Z,101.31
2023-05-21T14:15:45.601Z,104
2023-05-21T14:16:54.769Z,101.8
2023-05-21T14:18:03.953Z,101.8
2023-05-21T14:19:13.114Z,103.75
2023-05-21T14:20:22.295Z,104.24
2023-05-21T14:21:31.458Z,101.07
2023-05-21T14:22:40.640Z,105.95
2023-05-21T14:23:49.802Z,102.29
2023-05-21T14:24:58.975Z,102.78
2023-05-21T14:26:08.148Z,103.27
2023-05-21T14:27:17.319Z,101.07
2023-05-21T14:28:26.489Z,100.83
2023-05-21T14:29:34.680Z,101.31
2023-05-21T14:30:43.876Z,101.07
2023-05-21T14:31:53.048Z,101.07
2023-05-21T14:33:02.200Z,103.02
2023-05-21T14:34:11.373Z,104
2023-05-21T14:35:20.538Z,105.46
2023-05-21T14:36:28.736Z,102.53
2023-05-21T14:37:36.941Z,105.71
2023-05-21T14:38:45.130Z,107.66
2023-05-21T14:39:54.310Z,104.49
2023-05-21T14:41:03.489Z,105.71
2023-05-21T14:42:12.630Z,104
2023-05-21T14:43:21.822Z,104.98
2023-05-21T14:44:30.998Z,106.68
2023-05-21T14:45:40.158Z,107.17
2023-05-21T14:46:49.350Z,108.88
2023-05-21T14:47:58.522Z,106.68
2023-05-21T14:49:07.668Z,107.66
2023-05-21T14:50:16.847Z,107.66
2023-05-21T14:51:26.015Z,104.73
2023-05-21T14:52:35.211Z,107.17
2023-05-21T14:53:43.373Z,109.13
2023-05-21T14:54:52.559Z,107.17
2023-05-21T14:56:01.737Z,107.17
2023-05-21T14:57:10.891Z,105.95
2023-05-21T14:58:20.061Z,106.68
2023-05-21T14:59:29.258Z,108.39
2023-05-21T15:00:37.462Z,106.2
2023-05-21T15:01:45.645Z,106.93
2023-05-21T15:02:53.814Z,108.39
2023-05-21T15:04:02.999Z,107.91
2023-05-21T15:05:12.168Z,106.68
2023-05-21T15:06:21.342Z,107.91
2023-05-21T15:07:30.508Z,109.13
2023-05-21T15:08:39.681Z,108.15